createdAt,value
2023-03-13T00:00:54.987Z,100.00
2023-03-13T00:03:22.954Z,100.00
2023-03-13T00:05:50.511Z,100.00
2023-03-13T00:08:18.041Z,100.00
2023-03-13T00:10:45.507Z,100.00
2023-03-13T00:13:14.630Z,100.00
2023-03-13T00:15:42.085Z,100.00
2023-03-13T00:18:09.555Z,100.00
2023-03-13T00:20:37.011Z,100.00
2023-03-13T00:23:04.512Z,100.00
2023-03-13T00:25:32.002Z,100.00
2023-03-13T00:27:59.524Z,100.00
2023-03-13T00:30:28.430Z,100.00
2023-03-13T00:32:56.060Z,100.00
2023-03-13T00:35:23.576Z,100.00
2023-03-13T00:37:51.070Z,100.00
2023-03-13T00:40:20.209Z,100.00
2023-03-13T00:42:47.678Z,100.00
2023-03-13T00:45:15.261Z,100.00
2023-03-13T00:47:44.054Z,100.00
2023-03-13T00:50:12.455Z,100.00
2023-03-13T00:52:39.903Z,100.00
2023-03-13T00:55:08.653Z,100.00
2023-03-13T00:57:37.463Z,100.00
2023-03-13T01:00:07.240Z,100.00
2023-03-13T01:02:34.884Z,100.00
2023-03-13T01:05:04.084Z,100.00
2023-03-13T01:07:31.554Z,100.00
2023-03-13T01:09:59.013Z,100.00
2023-03-13T01:12:26.467Z,100.00
2023-03-13T01:14:54.178Z,100.00
2023-03-13T01:17:22.061Z,100.00
2023-03-13T01:19:49.903Z,100.00
2023-03-13T01:22:18.750Z,100.00
2023-03-13T01:24:50.023Z,100.00
2023-03-13T01:27:17.507Z,100.00
2023-03-13T01:29:45.003Z,100.00
2023-03-13T01:32:12.483Z,100.00
2023-03-13T01:34:40.552Z,100.00
2023-03-13T01:37:08.045Z,100.00
2023-03-13T01:39:36.848Z,100.00
2023-03-13T01:42:04.697Z,100.00
2023-03-13T01:44:50.684Z,100.00
2023-03-13T01:47:18.182Z,100.00
2023-03-13T01:49:46.303Z,100.00
2023-03-13T01:52:17.140Z,100.00
2023-03-13T01:54:51.028Z,100.00
2023-03-13T01:57:23.598Z,100.00
2023-03-13T01:59:55.063Z,100.00
2023-03-13T02:02:23.722Z,100.00
2023-03-13T02:04:56.670Z,100.00
2023-03-13T02:07:28.260Z,100.00
2023-03-13T02:09:57.856Z,100.00
2023-03-13T02:12:30.621Z,100.00
2023-03-13T02:15:00.122Z,100.00
2023-03-13T02:17:28.427Z,100.00
2023-03-13T02:19:56.070Z,100.00
2023-03-13T02:22:32.776Z,100.00
2023-03-13T02:25:07.727Z,100.00
2023-03-13T02:27:36.606Z,100.00
2023-03-13T02:30:05.462Z,100.00
2023-03-13T02:32:33.290Z,100.00
2023-03-13T02:35:05.796Z,100.00
2023-03-13T02:37:34.520Z,100.00
2023-03-13T02:40:06.193Z,100.00
2023-03-13T02:42:33.707Z,100.00
2023-03-13T02:45:02.509Z,100.00
2023-03-13T02:47:29.982Z,100.00
2023-03-13T02:49:57.464Z,100.00
2023-03-13T02:52:28.989Z,100.00
2023-03-13T02:55:00.007Z,100.00
2023-03-13T02:57:27.602Z,100.00
2023-03-13T02:59:55.070Z,100.00
2023-03-13T03:02:23.964Z,100.00
2023-03-13T03:04:51.498Z,100.00
2023-03-13T03:07:19.065Z,100.00
2023-03-13T03:09:46.533Z,100.00
2023-03-13T03:12:14.020Z,100.00
2023-03-13T03:14:41.622Z,100.00
2023-03-13T03:17:09.139Z,100.00
2023-03-13T03:19:37.908Z,100.00
2023-03-13T03:22:06.037Z,100.00
2023-03-13T03:24:33.542Z,100.00
2023-03-13T03:27:01.004Z,100.00
2023-03-13T03:29:28.700Z,100.00
2023-03-13T03:31:56.371Z,100.00
2023-03-13T03:34:24.016Z,100.00
2023-03-13T03:36:52.980Z,100.00
2023-03-13T03:39:20.470Z,100.00
2023-03-13T03:41:47.961Z,100.00
2023-03-13T03:44:15.502Z,100.00
2023-03-13T03:46:42.982Z,100.00
2023-03-13T03:49:10.464Z,100.00
2023-03-13T03:51:37.924Z,100.00
2023-03-13T03:54:06.749Z,100.00
2023-03-13T03:56:34.268Z,100.00
2023-03-13T03:59:01.739Z,100.00
2023-03-13T04:01:29.318Z,100.00
2023-03-13T04:03:56.794Z,100.00
2023-03-13T04:06:24.255Z,100.00
2023-03-13T04:08:51.738Z,100.00
2023-03-13T04:11:20.532Z,100.00
2023-03-13T04:13:48.055Z,100.00
2023-03-13T04:16:15.644Z,100.00
2023-03-13T04:18:43.152Z,100.00
2023-03-13T04:21:10.609Z,100.00
2023-03-13T04:23:38.099Z,100.00
2023-03-13T04:26:05.850Z,100.00
2023-03-13T04:28:34.659Z,100.00
2023-03-13T04:31:02.217Z,100.00
2023-03-13T04:33:30.417Z,100.00
2023-03-13T04:35:58.029Z,100.00
2023-03-13T04:38:25.560Z,100.00
2023-03-13T04:40:53.051Z,100.00
2023-03-13T04:43:20.534Z,100.00
2023-03-13T04:45:50.049Z,100.00
2023-03-13T04:48:17.567Z,100.00
2023-03-13T04:50:45.049Z,100.00
2023-03-13T04:53:12.521Z,100.00
2023-03-13T04:55:40.099Z,100.00
2023-03-13T04:58:07.619Z,100.00
2023-03-13T05:00:35.103Z,100.00
2023-03-13T05:03:03.925Z,100.00
2023-03-13T05:05:31.413Z,100.00
2023-03-13T05:07:58.918Z,100.00
2023-03-13T05:10:26.490Z,100.00
2023-03-13T05:12:54.029Z,100.00
2023-03-13T05:15:21.512Z,100.00
2023-03-13T05:17:48.990Z,100.00
2023-03-13T05:20:18.031Z,100.00
2023-03-13T05:22:45.552Z,100.00
2023-03-13T05:25:13.141Z,100.00
2023-03-13T05:27:40.688Z,100.00
2023-03-13T05:30:09.695Z,100.00
2023-03-13T05:32:37.234Z,100.00
2023-03-13T05:35:05.176Z,100.00
2023-03-13T05:37:34.081Z,100.00
2023-03-13T05:40:01.581Z,100.00
2023-03-13T05:42:29.071Z,100.00
2023-03-13T05:44:56.556Z,100.00
2023-03-13T05:47:24.054Z,100.00
2023-03-13T05:49:51.527Z,100.00
2023-03-13T05:52:19.017Z,100.00
2023-03-13T05:54:47.829Z,100.00
2023-03-13T05:57:15.320Z,100.00
2023-03-13T05:59:42.933Z,100.00
2023-03-13T06:02:10.396Z,100.00
2023-03-13T06:04:37.946Z,100.00
2023-03-13T06:07:05.840Z,100.00
2023-03-13T06:09:33.398Z,100.00
2023-03-13T06:12:02.188Z,100.00
2023-03-13T06:14:29.659Z,100.00
2023-03-13T06:16:57.119Z,100.00
2023-03-13T06:19:25.062Z,100.00
2023-03-13T06:21:53.266Z,100.00
2023-03-13T06:24:20.755Z,100.00
2023-03-13T06:26:49.991Z,100.00
2023-03-13T06:29:18.963Z,100.00
2023-03-13T06:31:46.607Z,100.00
2023-03-13T06:34:14.617Z,100.00
2023-03-13T06:36:42.084Z,100.00
2023-03-13T06:39:10.219Z,100.00
2023-03-13T06:41:37.694Z,100.00
2023-03-13T06:44:05.203Z,100.00
2023-03-13T06:46:34.407Z,100.00
2023-03-13T06:49:04.568Z,100.00
2023-03-13T06:51:32.480Z,100.00
2023-03-13T06:54:00.145Z,100.00
2023-03-13T06:56:27.569Z,100.00
2023-03-13T06:58:55.030Z,100.00
2023-03-13T07:01:22.610Z,100.00
2023-03-13T07:03:51.496Z,100.00
2023-03-13T07:06:19.490Z,100.00
2023-03-13T07:08:47.174Z,100.00
2023-03-13T07:11:15.429Z,100.00
2023-03-13T07:13:43.076Z,100.00
2023-03-13T07:16:12.980Z,100.00
2023-03-13T07:18:44.369Z,100.00
2023-03-13T07:21:13.738Z,100.00
2023-03-13T07:23:41.626Z,100.00
2023-03-13T07:26:12.299Z,100.00
2023-03-13T07:28:39.944Z,100.00
2023-03-13T07:31:09.455Z,100.00
2023-03-13T07:33:36.983Z,100.00
2023-03-13T07:36:05.392Z,100.00
2023-03-13T07:38:34.332Z,100.00
2023-03-13T07:41:01.955Z,100.00
2023-03-13T07:43:31.359Z,100.00
2023-03-13T07:46:00.221Z,100.00
2023-03-13T07:48:31.029Z,100.00
2023-03-13T07:50:59.524Z,100.00
2023-03-13T07:53:28.053Z,100.00
2023-03-13T07:55:58.965Z,100.00
2023-03-13T07:58:28.286Z,100.00
2023-03-13T08:00:55.806Z,100.00
2023-03-13T08:03:24.271Z,100.00
2023-03-13T08:05:59.883Z,100.00
2023-03-13T08:08:27.658Z,100.00
2023-03-13T08:10:55.148Z,100.00
2023-03-13T08:13:23.922Z,100.00
2023-03-13T08:15:51.370Z,100.00
2023-03-13T08:18:18.876Z,100.00
2023-03-13T08:20:46.326Z,100.00
2023-03-13T08:23:13.783Z,100.00
2023-03-13T08:25:41.220Z,100.00
2023-03-13T08:28:08.823Z,100.00
2023-03-13T08:30:37.733Z,100.00
2023-03-13T08:33:07.532Z,100.00
2023-03-13T08:35:35.289Z,100.00
2023-03-13T08:38:02.909Z,100.00
2023-03-13T08:40:30.414Z,100.00
2023-03-13T08:42:57.859Z,100.00
2023-03-13T08:45:25.330Z,100.00
2023-03-13T08:47:54.654Z,100.00
2023-03-13T08:50:22.136Z,100.00
2023-03-13T08:52:49.577Z,93.55
2023-03-13T08:55:17.209Z,90.46
2023-03-13T08:57:44.661Z,81.00
2023-03-13T09:00:14.991Z,82.99
2023-03-13T09:02:42.520Z,87.63
2023-03-13T09:05:11.406Z,88.00
2023-03-13T09:07:38.870Z,87.63
2023-03-13T09:10:07.503Z,90.17
2023-03-13T09:12:34.961Z,90.16
2023-03-13T09:15:02.497Z,92.54
2023-03-13T09:17:29.983Z,92.98
2023-03-13T09:20:00.486Z,97.95
2023-03-13T09:22:29.809Z,100.00
2023-03-13T09:24:57.240Z,100.00
2023-03-13T09:27:24.709Z,100.00
2023-03-13T09:29:52.344Z,100.00
2023-03-13T09:32:20.462Z,100.00
2023-03-13T09:34:48.354Z,100.00
2023-03-13T09:37:16.057Z,100.00
2023-03-13T09:39:44.889Z,100.00
2023-03-13T09:42:17.624Z,100.00
2023-03-13T09:44:49.641Z,100.00
2023-03-13T09:47:25.031Z,100.00
2023-03-13T09:49:56.754Z,100.00
2023-03-13T09:52:25.982Z,100.00
2023-03-13T09:54:58.366Z,100.00
2023-03-13T09:57:32.346Z,100.00
2023-03-13T10:00:04.599Z,100.00
2023-03-13T10:02:34.050Z,100.00
2023-03-13T10:05:11.225Z,100.00
2023-03-13T10:07:38.745Z,100.00
2023-03-13T10:10:14.368Z,100.00
2023-03-13T10:12:45.596Z,100.00
2023-03-13T10:15:37.961Z,100.00
2023-03-13T10:18:16.625Z,100.00
2023-03-13T10:20:46.604Z,99.05
2023-03-13T10:23:17.728Z,97.60
2023-03-13T10:25:46.578Z,96.10
2023-03-13T10:28:15.518Z,89.66
2023-03-13T10:30:48.791Z,88.70
2023-03-13T10:33:21.777Z,91.57
2023-03-13T10:36:01.206Z,88.28
2023-03-13T10:38:28.702Z,80.26
2023-03-13T10:41:02.055Z,74.60
2023-03-13T10:43:30.440Z,70.26
2023-03-13T10:45:57.896Z,62.54
2023-03-13T10:48:27.768Z,62.71
2023-03-13T10:50:57.535Z,63.87
2023-03-13T10:53:33.385Z,67.79
2023-03-13T10:56:11.515Z,70.39
2023-03-13T10:58:43.931Z,71.12
2023-03-13T11:01:18.375Z,68.86
2023-03-13T11:03:47.426Z,64.63
2023-03-13T11:06:27.494Z,62.67
2023-03-13T11:09:04.710Z,63.33
2023-03-13T11:11:45.353Z,65.83
2023-03-13T11:14:18.264Z,67.59
2023-03-13T11:16:50.740Z,71.81
2023-03-13T11:19:30.739Z,71.73
2023-03-13T11:22:16.037Z,75.58
2023-03-13T11:24:50.282Z,78.69
2023-03-13T11:27:28.198Z,75.58
2023-03-13T11:30:08.990Z,73.37
2023-03-13T11:32:43.122Z,77.59
2023-03-13T11:35:22.147Z,78.32
2023-03-13T11:37:53.233Z,81.41
2023-03-13T11:40:22.995Z,80.13
2023-03-13T11:43:22.020Z,82.97
2023-03-13T11:46:09.458Z,85.66
2023-03-13T11:48:49.925Z,85.03
2023-03-13T11:51:25.681Z,83.42
2023-03-13T11:54:17.148Z,83.62
2023-03-13T11:56:47.998Z,87.36
2023-03-13T11:59:31.424Z,89.77
2023-03-13T12:02:05.579Z,87.09
2023-03-13T12:04:37.789Z,87.66
2023-03-13T12:07:11.286Z,87.83
2023-03-13T12:09:45.933Z,83.15
2023-03-13T12:12:20.312Z,80.39
2023-03-13T12:14:54.735Z,79.03
2023-03-13T12:17:32.819Z,73.13
2023-03-13T12:20:07.790Z,63.23
2023-03-13T12:22:40.516Z,58.41
2023-03-13T12:25:16.108Z,57.67
2023-03-13T12:27:48.362Z,58.95
2023-03-13T12:30:28.338Z,59.29
2023-03-13T12:33:02.899Z,64.69
2023-03-13T12:35:33.264Z,63.29
2023-03-13T12:38:10.123Z,59.90
2023-03-13T12:40:44.828Z,57.83
2023-03-13T12:43:18.481Z,58.82
2023-03-13T12:46:11.974Z,61.59
2023-03-13T12:49:01.048Z,62.67
2023-03-13T12:51:41.736Z,63.93
2023-03-13T12:54:40.593Z,63.25
2023-03-13T12:57:23.142Z,64.06
2023-03-13T12:59:55.585Z,66.18
2023-03-13T13:02:26.474Z,66.41
2023-03-13T13:04:56.947Z,67.60
2023-03-13T13:07:27.335Z,67.73
2023-03-13T13:10:18.605Z,65.55
2023-03-13T13:12:47.036Z,65.65
2023-03-13T13:15:23.451Z,64.19
2023-03-13T13:17:58.267Z,65.41
2023-03-13T13:20:35.009Z,64.07
2023-03-13T13:23:34.662Z,63.18
2023-03-13T13:26:41.967Z,62.99
2023-03-13T13:29:55.863Z,58.54
2023-03-13T13:32:45.903Z,51.70
2023-03-13T13:35:26.904Z,48.11
2023-03-13T13:38:15.433Z,46.66
2023-03-13T13:41:00.001Z,49.06
2023-03-13T13:43:31.970Z,52.88
2023-03-13T13:46:03.567Z,53.64
2023-03-13T13:48:34.139Z,54.00
2023-03-13T13:51:33.408Z,52.93
2023-03-13T13:54:03.017Z,51.66
2023-03-13T13:56:36.160Z,50.87
2023-03-13T13:59:12.913Z,49.05
2023-03-13T14:01:42.591Z,48.04
2023-03-13T14:04:16.519Z,50.32
2023-03-13T14:06:49.625Z,50.16
2023-03-13T14:09:32.245Z,50.51
2023-03-13T14:11:59.807Z,51.31
2023-03-13T14:14:27.441Z,51.57
2023-03-13T14:16:57.072Z,54.54
2023-03-13T14:19:30.437Z,57.31
2023-03-13T14:22:05.215Z,57.87
2023-03-13T14:24:32.830Z,56.45
2023-03-13T14:27:00.927Z,55.19
2023-03-13T14:29:28.775Z,54.74
2023-03-13T14:31:58.643Z,53.84
2023-03-13T14:34:28.377Z,53.00
2023-03-13T14:37:16.781Z,52.57
2023-03-13T14:39:48.656Z,54.73
2023-03-13T14:42:17.878Z,55.52
2023-03-13T14:44:48.644Z,54.41
2023-03-13T14:47:24.048Z,54.93
2023-03-13T14:49:58.719Z,54.32
2023-03-13T14:52:28.114Z,54.09
2023-03-13T14:54:58.506Z,54.36
2023-03-13T14:57:27.782Z,53.99
2023-03-13T14:59:56.078Z,55.68
2023-03-13T15:02:25.444Z,55.47
2023-03-13T15:04:59.581Z,57.85
2023-03-13T15:07:28.747Z,57.14
2023-03-13T15:09:57.642Z,55.94
2023-03-13T15:12:25.362Z,56.23
2023-03-13T15:14:53.884Z,57.45
2023-03-13T15:17:23.550Z,59.62
2023-03-13T15:19:53.863Z,60.72
2023-03-13T15:22:27.014Z,63.43
2023-03-13T15:25:05.712Z,66.46
2023-03-13T15:27:35.956Z,68.28
2023-03-13T15:30:03.652Z,70.09
2023-03-13T15:32:33.844Z,72.27
2023-03-13T15:35:03.263Z,73.63
2023-03-13T15:37:31.722Z,73.74
2023-03-13T15:39:59.289Z,75.78
2023-03-13T15:42:26.949Z,77.70
2023-03-13T15:44:55.732Z,79.65
2023-03-13T15:47:23.388Z,79.34
2023-03-13T15:49:50.962Z,80.25
2023-03-13T15:52:22.697Z,79.80
2023-03-13T15:54:51.908Z,80.44
2023-03-13T15:57:23.263Z,80.74
2023-03-13T15:59:51.100Z,80.43
2023-03-13T16:02:22.405Z,81.94
2023-03-13T16:04:50.300Z,82.22
2023-03-13T16:07:20.746Z,83.52
2023-03-13T16:09:48.902Z,85.05
2023-03-13T16:12:16.364Z,87.68
2023-03-13T16:14:43.844Z,91.01
2023-03-13T16:17:15.191Z,95.66
2023-03-13T16:19:44.149Z,97.61
2023-03-13T16:22:12.223Z,100.00
2023-03-13T16:24:40.043Z,100.00
2023-03-13T16:27:14.105Z,100.00
2023-03-13T16:29:41.565Z,100.00
2023-03-13T16:32:12.722Z,100.00
2023-03-13T16:34:40.228Z,100.00
2023-03-13T16:37:14.228Z,100.00
2023-03-13T16:39:42.123Z,100.00
2023-03-13T16:42:09.665Z,100.00
2023-03-13T16:44:37.174Z,100.00
2023-03-13T16:47:16.409Z,100.00
2023-03-13T16:49:45.757Z,100.00
2023-03-13T16:52:16.508Z,100.00
2023-03-13T16:54:44.476Z,100.00
2023-03-13T16:57:13.097Z,100.00
2023-03-13T16:59:40.651Z,100.00
2023-03-13T17:02:15.493Z,100.00
2023-03-13T17:04:44.907Z,100.00
2023-03-13T17:07:18.961Z,100.00
2023-03-13T17:09:47.031Z,100.00
2023-03-13T17:12:14.571Z,100.00
2023-03-13T17:14:42.137Z,100.00
2023-03-13T17:17:13.535Z,100.00
2023-03-13T17:19:41.098Z,100.00
2023-03-13T17:22:10.519Z,100.00
2023-03-13T17:24:39.355Z,100.00
2023-03-13T17:27:12.180Z,100.00
2023-03-13T17:29:39.735Z,100.00
2023-03-13T17:32:07.447Z,100.00
2023-03-13T17:34:34.948Z,100.00
2023-03-13T17:37:04.775Z,100.00
2023-03-13T17:39:32.396Z,100.00
2023-03-13T17:42:04.084Z,100.00
2023-03-13T17:44:31.625Z,100.00
2023-03-13T17:46:59.193Z,100.00
2023-03-13T17:49:26.708Z,100.00
2023-03-13T17:51:54.162Z,100.00
2023-03-13T17:54:21.836Z,100.00
2023-03-13T17:56:49.317Z,100.00
2023-03-13T17:59:19.791Z,100.00
2023-03-13T18:01:47.400Z,100.00
2023-03-13T18:04:15.061Z,100.00
2023-03-13T18:06:44.440Z,100.00
2023-03-13T18:09:16.240Z,100.00
2023-03-13T18:11:44.056Z,100.00
2023-03-13T18:14:11.772Z,100.00
2023-03-13T18:16:44.227Z,100.00
2023-03-13T18:19:15.922Z,100.00
2023-03-13T18:21:44.440Z,100.00
2023-03-13T18:24:13.087Z,100.00
2023-03-13T18:26:43.183Z,100.00
2023-03-13T18:29:15.944Z,100.00
2023-03-13T18:31:45.265Z,100.00
2023-03-13T18:34:13.276Z,100.00
2023-03-13T18:36:40.745Z,100.00
2023-03-13T18:39:08.216Z,100.00
2023-03-13T18:41:36.952Z,100.00
2023-03-13T18:44:04.549Z,100.00
2023-03-13T18:46:34.545Z,100.00
2023-03-13T18:49:03.698Z,100.00
2023-03-13T18:51:31.162Z,100.00
2023-03-13T18:53:59.181Z,100.00
2023-03-13T18:56:30.855Z,100.00
2023-03-13T18:58:59.318Z,100.00
2023-03-13T19:01:30.074Z,100.00
2023-03-13T19:04:00.026Z,100.00
2023-03-13T19:06:30.695Z,100.00
2023-03-13T19:09:00.185Z,100.00
2023-03-13T19:11:30.423Z,100.00
2023-03-13T19:13:58.492Z,100.00
2023-03-13T19:16:30.155Z,100.00
2023-03-13T19:18:58.225Z,100.00
2023-03-13T19:21:27.439Z,100.00
2023-03-13T19:23:56.997Z,100.00
2023-03-13T19:26:28.493Z,100.00
2023-03-13T19:28:56.251Z,100.00
2023-03-13T19:31:24.154Z,100.00
2023-03-13T19:33:53.411Z,100.00
2023-03-13T19:36:22.913Z,100.00
2023-03-13T19:38:51.626Z,100.00
2023-03-13T19:41:21.572Z,100.00
2023-03-13T19:43:50.047Z,100.00
2023-03-13T19:46:23.824Z,100.00
2023-03-13T19:48:53.709Z,100.00
2023-03-13T19:51:21.333Z,100.00
2023-03-13T19:53:48.990Z,100.00
2023-03-13T19:56:20.844Z,100.00
2023-03-13T19:58:50.034Z,100.00
2023-03-13T20:01:18.108Z,100.00
2023-03-13T20:03:46.737Z,100.00
2023-03-13T20:06:17.506Z,100.00
2023-03-13T20:08:45.378Z,100.00
2023-03-13T20:11:13.611Z,100.00
2023-03-13T20:13:43.308Z,100.00
2023-03-13T20:16:11.846Z,100.00
2023-03-13T20:18:39.644Z,100.00
2023-03-13T20:21:07.737Z,100.00
2023-03-13T20:23:35.240Z,100.00
2023-03-13T20:26:04.800Z,100.00
2023-03-13T20:28:32.351Z,100.00
2023-03-13T20:31:01.236Z,100.00
2023-03-13T20:33:28.741Z,100.00
2023-03-13T20:35:58.430Z,100.00
2023-03-13T20:38:25.980Z,100.00
2023-03-13T20:40:54.126Z,100.00
2023-03-13T20:43:21.953Z,100.00
2023-03-13T20:45:49.660Z,100.00
2023-03-13T20:48:19.186Z,100.00
2023-03-13T20:50:47.176Z,100.00
2023-03-13T20:53:15.013Z,100.00
2023-03-13T20:55:42.730Z,100.00
2023-03-13T20:58:10.217Z,100.00
2023-03-13T21:00:37.695Z,100.00
2023-03-13T21:03:05.641Z,100.00
2023-03-13T21:05:34.507Z,100.00
2023-03-13T21:08:01.953Z,100.00
2023-03-13T21:10:29.463Z,100.00
2023-03-13T21:12:56.904Z,100.00
2023-03-13T21:15:24.384Z,100.00
2023-03-13T21:17:52.099Z,100.00
2023-03-13T21:20:19.645Z,100.00
2023-03-13T21:22:48.488Z,100.00
2023-03-13T21:25:16.632Z,100.00
2023-03-13T21:27:44.688Z,100.00
2023-03-13T21:30:15.066Z,100.00
2023-03-13T21:32:42.778Z,100.00
2023-03-13T21:35:11.182Z,100.00
2023-03-13T21:37:38.923Z,97.76
2023-03-13T21:40:09.651Z,88.92
2023-03-13T21:42:37.583Z,84.71
2023-03-13T21:45:05.939Z,83.13
2023-03-13T21:47:36.815Z,84.60
2023-03-13T21:50:05.899Z,84.34
2023-03-13T21:52:38.154Z,88.71
2023-03-13T21:55:12.406Z,86.06
2023-03-13T21:57:40.961Z,87.55
2023-03-13T22:00:10.066Z,95.33
2023-03-13T22:02:38.454Z,100.00
2023-03-13T22:05:07.612Z,100.00
2023-03-13T22:07:35.395Z,100.00
2023-03-13T22:10:02.882Z,100.00
2023-03-13T22:12:31.708Z,100.00
2023-03-13T22:14:59.180Z,100.00
2023-03-13T22:17:26.719Z,100.00
2023-03-13T22:19:54.885Z,100.00
2023-03-13T22:22:23.090Z,100.00
2023-03-13T22:24:50.618Z,100.00
2023-03-13T22:27:19.404Z,100.00
2023-03-13T22:29:48.689Z,100.00
2023-03-13T22:32:16.734Z,100.00
2023-03-13T22:34:47.101Z,100.00
2023-03-13T22:37:15.168Z,100.00
2023-03-13T22:39:42.704Z,100.00
2023-03-13T22:42:10.175Z,100.00
2023-03-13T22:44:37.667Z,100.00
2023-03-13T22:47:06.532Z,100.00
2023-03-13T22:49:34.002Z,100.00
2023-03-13T22:52:02.570Z,100.00
2023-03-13T22:54:30.313Z,100.00
2023-03-13T22:56:57.861Z,100.00
2023-03-13T22:59:25.379Z,100.00
2023-03-13T23:01:52.871Z,100.00
2023-03-13T23:04:21.718Z,100.00
2023-03-13T23:06:49.227Z,100.00
2023-03-13T23:09:16.752Z,100.00
2023-03-13T23:11:44.274Z,100.00
2023-03-13T23:14:11.813Z,100.00
2023-03-13T23:16:39.360Z,100.00
2023-03-13T23:19:07.706Z,100.00
2023-03-13T23:21:36.569Z,100.00
2023-03-13T23:24:04.133Z,100.00
2023-03-13T23:26:31.657Z,100.00
2023-03-13T23:28:59.169Z,100.00
2023-03-13T23:31:26.720Z,100.00
2023-03-13T23:33:54.211Z,100.00
2023-03-13T23:36:21.724Z,100.00
2023-03-13T23:38:52.091Z,100.00
2023-03-13T23:41:20.904Z,100.00
2023-03-13T23:43:48.391Z,100.00
2023-03-13T23:46:18.062Z,100.00
2023-03-13T23:48:45.573Z,100.00
2023-03-13T23:51:13.374Z,100.00
2023-03-13T23:53:42.390Z,100.00
2023-03-13T23:56:11.794Z,100.00
2023-03-13T23:58:39.387Z,100.00
